createdAt,value
2022-12-20T00:01:29.880Z,99228.28
2022-12-20T00:04:02.509Z,99226.38
2022-12-20T00:06:32.228Z,99219.06
2022-12-20T00:09:02.855Z,99210.56
2022-12-20T00:11:31.485Z,99219.09
2022-12-20T00:13:59.733Z,99218.72
2022-12-20T00:16:29.257Z,99227.22
2022-12-20T00:18:59.198Z,99228.78
2022-12-20T00:21:28.084Z,99235.03
2022-12-20T00:23:57.747Z,99232.28
2022-12-20T00:26:28.177Z,99231.88
2022-12-20T00:28:57.309Z,99221.03
2022-12-20T00:31:28.044Z,99225.69
2022-12-20T00:33:58.223Z,99230.34
2022-12-20T00:36:28.307Z,99224.13
2022-12-20T00:38:59.407Z,99228.38
2022-12-20T00:41:30.167Z,99238.47
2022-12-20T00:43:58.758Z,99232.69
2022-12-20T00:46:27.116Z,99234.97
2022-12-20T00:48:56.915Z,99240.44
2022-12-20T00:51:26.939Z,99229.94
2022-12-20T00:53:55.832Z,99241.59
2022-12-20T00:56:25.787Z,99228.78
2022-12-20T00:58:58.813Z,99240.81
2022-12-20T01:01:29.123Z,99241.97
2022-12-20T01:03:58.015Z,99228.81
2022-12-20T01:06:26.290Z,99231.53
2022-12-20T01:08:54.624Z,99226.09
2022-12-20T01:11:24.710Z,99228.41
2022-12-20T01:13:57.144Z,99222.97
2022-12-20T01:16:27.098Z,99223.34
2022-12-20T01:18:55.756Z,99224.91
2022-12-20T01:21:25.750Z,99223.75
2022-12-20T01:23:54.508Z,99212.84
2022-12-20T01:26:24.719Z,99207.44
2022-12-20T01:28:56.849Z,99207.44
2022-12-20T01:31:25.855Z,99202.75
2022-12-20T01:33:54.240Z,99192.66
2022-12-20T01:36:25.939Z,99198.06
2022-12-20T01:38:57.942Z,99195.75
2022-12-20T01:41:26.273Z,99185.66
2022-12-20T01:43:58.867Z,99184.13
2022-12-20T01:46:28.736Z,99175.97
2022-12-20T01:49:01.713Z,99175.19
2022-12-20T01:51:32.131Z,99177.09
2022-12-20T01:54:06.090Z,99187.59
2022-12-20T01:56:34.537Z,99183.31
2022-12-20T01:59:05.151Z,99183.28
2022-12-20T02:01:33.720Z,99182.16
2022-12-20T02:04:01.789Z,99179.41
2022-12-20T02:06:29.908Z,99172.41
2022-12-20T02:09:03.129Z,99173.97
2022-12-20T02:11:52.609Z,99187.56
2022-12-20T02:14:33.796Z,99205.84
2022-12-20T02:17:13.374Z,99204.75
2022-12-20T02:20:07.685Z,99195.84
2022-12-20T02:22:50.222Z,99188.84
2022-12-20T02:25:48.381Z,99175.25
2022-12-20T02:28:33.846Z,99174.44
2022-12-20T02:31:06.957Z,99169.41
2022-12-20T02:33:35.085Z,99158.53
2022-12-20T02:36:04.452Z,99158.13
2022-12-20T02:38:34.755Z,99156.50
2022-12-20T02:41:07.843Z,99147.56
2022-12-20T02:43:57.866Z,99145.59
2022-12-20T02:46:28.672Z,99147.84
2022-12-20T02:48:59.669Z,99141.25
2022-12-20T02:51:29.751Z,99140.81
2022-12-20T02:53:59.142Z,99144.38
2022-12-20T02:56:32.586Z,99142.75
2022-12-20T02:59:08.175Z,99144.25
2022-12-20T03:01:40.512Z,99139.56
2022-12-20T03:04:09.937Z,99130.56
2022-12-20T03:06:40.776Z,99130.94
2022-12-20T03:09:08.859Z,99146.38
2022-12-20T03:11:38.479Z,99148.69
2022-12-20T03:14:07.143Z,99156.00
2022-12-20T03:16:36.992Z,99144.31
2022-12-20T03:19:05.030Z,99139.28
2022-12-20T03:21:33.009Z,99140.44
2022-12-20T03:24:01.896Z,99131.84
2022-12-20T03:26:30.061Z,99112.47
2022-12-20T03:29:00.526Z,99116.25
2022-12-20T03:31:29.654Z,99125.97
2022-12-20T03:33:59.247Z,99122.19
2022-12-20T03:36:27.808Z,99117.00
2022-12-20T03:39:00.509Z,99119.72
2022-12-20T03:41:31.959Z,99131.59
2022-12-20T03:44:01.021Z,99136.19
2022-12-20T03:46:29.204Z,99134.16
2022-12-20T03:48:59.370Z,99125.22
2022-12-20T03:51:27.747Z,99121.25
2022-12-20T03:53:55.950Z,99128.97
2022-12-20T03:56:30.612Z,99119.69
2022-12-20T03:58:58.694Z,99129.47
2022-12-20T04:01:29.482Z,99113.41
2022-12-20T04:03:59.639Z,99102.47
2022-12-20T04:06:28.606Z,99106.03
2022-12-20T04:08:56.834Z,99108.53
2022-12-20T04:11:30.256Z,99115.00
2022-12-20T04:14:11.577Z,99116.16
2022-12-20T04:16:39.943Z,99099.38
2022-12-20T04:19:10.092Z,99098.34
2022-12-20T04:21:42.510Z,99084.47
2022-12-20T04:24:11.192Z,99088.97
2022-12-20T04:27:08.168Z,99088.25
2022-12-20T04:29:36.169Z,99095.25
2022-12-20T04:32:06.616Z,99098.09
2022-12-20T04:34:36.033Z,99095.00
2022-12-20T04:37:04.474Z,99084.50
2022-12-20T04:39:44.301Z,99079.78
2022-12-20T04:42:35.395Z,99085.28
2022-12-20T04:45:04.407Z,99083.66
2022-12-20T04:47:32.681Z,99089.50
2022-12-20T04:50:02.413Z,99082.16
2022-12-20T04:52:48.494Z,99091.38
2022-12-20T04:55:17.823Z,99091.06
2022-12-20T04:57:46.182Z,99089.78
2022-12-20T05:00:15.825Z,99092.59
2022-12-20T05:02:47.337Z,99090.66
2022-12-20T05:05:20.297Z,99094.63
2022-12-20T05:07:52.717Z,99078.34
2022-12-20T05:10:21.229Z,99082.53
2022-12-20T05:12:50.130Z,99079.84
2022-12-20T05:15:40.456Z,99081.03
2022-12-20T05:18:08.696Z,99067.50
2022-12-20T05:21:12.655Z,99068.63
2022-12-20T05:23:58.880Z,99074.09
2022-12-20T05:26:34.693Z,99068.66
2022-12-20T05:29:02.878Z,99079.88
2022-12-20T05:31:31.186Z,99087.25
2022-12-20T05:34:00.445Z,99083.78
2022-12-20T05:36:33.611Z,99083.78
2022-12-20T05:39:04.869Z,99076.03
2022-12-20T05:41:36.401Z,99069.81
2022-12-20T05:44:04.651Z,99077.19
2022-12-20T05:46:35.737Z,99069.44
2022-12-20T05:49:08.806Z,99071.00
2022-12-20T05:51:38.222Z,99071.00
2022-12-20T05:54:25.350Z,99077.56
2022-12-20T05:57:16.195Z,99071.00
2022-12-20T05:59:44.429Z,99070.63
2022-12-20T06:02:22.132Z,99069.44
2022-12-20T06:04:54.797Z,99062.47
2022-12-20T06:07:29.102Z,99064.81
2022-12-20T06:10:00.415Z,99070.19
2022-12-20T06:12:41.237Z,99067.81
2022-12-20T06:15:10.944Z,99075.13
2022-12-20T06:17:40.423Z,99066.22
2022-12-20T06:20:09.711Z,99074.75
2022-12-20T06:22:39.235Z,99071.59
2022-12-20T06:25:09.352Z,99067.75
2022-12-20T06:27:40.544Z,99062.69
2022-12-20T06:30:14.603Z,99060.88
2022-12-20T06:33:05.975Z,99056.16
2022-12-20T06:35:33.988Z,99044.03
2022-12-20T06:38:03.607Z,99057.28
2022-12-20T06:40:35.040Z,99060.41
2022-12-20T06:43:03.140Z,99062.31
2022-12-20T06:45:34.754Z,99070.19
2022-12-20T06:48:08.180Z,99073.56
2022-12-20T06:50:36.893Z,99079.34
2022-12-20T06:53:06.474Z,99080.88
2022-12-20T06:55:34.691Z,99082.44
2022-12-20T06:58:02.745Z,99066.06
2022-12-20T07:00:30.954Z,99069.16
2022-12-20T07:02:59.618Z,99076.25
2022-12-20T07:05:27.807Z,99071.28
2022-12-20T07:07:55.829Z,99075.56
2022-12-20T07:10:25.350Z,99070.19
2022-12-20T07:12:53.689Z,99071.28
2022-12-20T07:15:22.260Z,99062.00
2022-12-20T07:17:50.714Z,99055.66
2022-12-20T07:20:19.584Z,99051.00
2022-12-20T07:22:49.010Z,99060.66
2022-12-20T07:25:17.304Z,99063.72
2022-12-20T07:27:50.027Z,99062.72
2022-12-20T07:30:19.193Z,99059.84
2022-12-20T07:32:47.339Z,99059.81
2022-12-20T07:35:16.251Z,99059.47
2022-12-20T07:37:44.853Z,99057.03
2022-12-20T07:40:14.831Z,99063.06
2022-12-20T07:42:48.293Z,99058.03
2022-12-20T07:45:18.617Z,99054.06
2022-12-20T07:47:46.667Z,99060.94
2022-12-20T07:50:15.018Z,99057.84
2022-12-20T07:52:45.925Z,99050.44
2022-12-20T07:55:15.644Z,99049.50
2022-12-20T07:57:49.395Z,99064.22
2022-12-20T08:00:19.841Z,99058.13
2022-12-20T08:02:53.967Z,99067.63
2022-12-20T08:05:22.623Z,99059.41
2022-12-20T08:07:56.792Z,99056.78
2022-12-20T08:10:27.554Z,99052.13
2022-12-20T08:12:56.623Z,99061.69
2022-12-20T08:15:26.993Z,99050.28
2022-12-20T08:17:55.020Z,99054.81
2022-12-20T08:20:23.353Z,99045.16
2022-12-20T08:22:51.399Z,99050.31
2022-12-20T08:25:19.626Z,99040.34
2022-12-20T08:27:47.666Z,99047.13
2022-12-20T08:30:16.350Z,99048.50
2022-12-20T08:32:45.774Z,99049.75
2022-12-20T08:35:14.149Z,99046.81
2022-12-20T08:37:42.125Z,99042.34
2022-12-20T08:40:11.407Z,99045.84
2022-12-20T08:42:39.520Z,99041.84
2022-12-20T08:45:08.776Z,99034.72
2022-12-20T08:47:36.760Z,99036.94
2022-12-20T08:50:07.167Z,99035.69
2022-12-20T08:52:35.250Z,99033.06
2022-12-20T08:55:05.336Z,99022.22
2022-12-20T08:57:33.738Z,99027.94
2022-12-20T09:00:01.716Z,99026.72
2022-12-20T09:02:29.879Z,99023.56
2022-12-20T09:04:59.413Z,99026.53
2022-12-20T09:07:28.782Z,99031.44
2022-12-20T09:09:57.296Z,99042.00
2022-12-20T09:12:25.365Z,99038.38
2022-12-20T09:14:54.647Z,99023.16
2022-12-20T09:17:22.718Z,99019.72
2022-12-20T09:19:51.017Z,99021.47
2022-12-20T09:22:19.067Z,99026.06
2022-12-20T09:24:49.266Z,99029.91
2022-12-20T09:27:17.486Z,99015.34
2022-12-20T09:29:45.543Z,99015.16
2022-12-20T09:32:13.791Z,99010.00
2022-12-20T09:34:48.280Z,99009.44
2022-12-20T09:37:16.486Z,99005.16
2022-12-20T09:39:44.619Z,99003.50
2022-12-20T09:42:16.907Z,98995.78
2022-12-20T09:44:45.049Z,98986.34
2022-12-20T09:47:19.149Z,98992.72
2022-12-20T09:49:49.569Z,98996.44
2022-12-20T09:52:30.127Z,99002.03
2022-12-20T09:55:07.366Z,98991.34
2022-12-20T09:57:49.084Z,98997.13
2022-12-20T10:00:19.840Z,98985.63
2022-12-20T10:03:06.692Z,98990.47
2022-12-20T10:05:44.376Z,98994.34
2022-12-20T10:08:38.361Z,99001.22
2022-12-20T10:11:14.771Z,98991.06
2022-12-20T10:13:57.610Z,98998.44
2022-12-20T10:16:40.255Z,98998.94
2022-12-20T10:19:24.447Z,98993.75
2022-12-20T10:22:00.177Z,98983.63
2022-12-20T10:24:31.576Z,98976.50
2022-12-20T10:27:08.740Z,98964.38
2022-12-20T10:29:38.434Z,98955.81
2022-12-20T10:32:14.608Z,98951.97
2022-12-20T10:34:51.330Z,98927.06
2022-12-20T10:37:19.514Z,98921.84
2022-12-20T10:39:49.787Z,98928.88
2022-12-20T10:42:34.329Z,98914.34
2022-12-20T10:45:04.518Z,98911.88
2022-12-20T10:47:39.627Z,98900.91
2022-12-20T10:50:16.967Z,98902.19
2022-12-20T10:52:46.375Z,98895.25
2022-12-20T10:55:37.470Z,98884.81
2022-12-20T10:58:07.984Z,98887.88
2022-12-20T11:00:37.623Z,98878.81
2022-12-20T11:03:15.812Z,98868.41
2022-12-20T11:05:59.096Z,98881.44
2022-12-20T11:11:19.588Z,98877.38
2022-12-20T11:13:49.300Z,98881.94
2022-12-20T11:16:42.946Z,98873.56
2022-12-20T11:19:34.179Z,98873.38
2022-12-20T11:22:12.788Z,98882.22
2022-12-20T11:24:50.467Z,98876.72
2022-12-20T11:27:31.429Z,98877.56
2022-12-20T11:30:18.803Z,98877.63
2022-12-20T11:33:18.190Z,98877.09
2022-12-20T11:35:53.651Z,98900.88
2022-12-20T11:38:40.448Z,98896.03
2022-12-20T11:41:20.252Z,98889.13
2022-12-20T11:44:26.304Z,98884.28
2022-12-20T11:47:09.475Z,98872.34
2022-12-20T11:50:14.493Z,98857.78
2022-12-20T11:52:48.327Z,98854.69
2022-12-20T11:55:21.832Z,98851.09
2022-12-20T12:00:53.735Z,98851.69
2022-12-20T12:03:29.930Z,98842.81
2022-12-20T12:06:03.801Z,98838.06
2022-12-20T12:08:41.371Z,98838.13
2022-12-20T12:11:55.863Z,98832.41
2022-12-20T12:14:06.256Z,98845.13
2022-12-20T12:16:38.895Z,98840.66
2022-12-20T12:19:11.302Z,98838.03
2022-12-20T12:21:46.093Z,98852.00
2022-12-20T12:24:24.626Z,98839.06
2022-12-20T12:26:54.382Z,98843.34
2022-12-20T12:29:23.555Z,98839.19
2022-12-20T12:31:57.405Z,98836.06
2022-12-20T12:34:38.737Z,98835.38
2022-12-20T12:37:40.018Z,98825.91
2022-12-20T12:40:27.851Z,98811.84
2022-12-20T12:43:46.906Z,98800.31
2022-12-20T12:46:19.526Z,98807.84
2022-12-20T12:48:53.854Z,98811.69
2022-12-20T12:51:33.062Z,98820.13
2022-12-20T12:54:29.220Z,98818.22
2022-12-20T12:57:14.032Z,98815.84
2022-12-20T12:59:52.932Z,98824.22
2022-12-20T13:02:52.131Z,98838.63
2022-12-20T13:05:36.943Z,98840.59
2022-12-20T13:08:05.990Z,98835.69
2022-12-20T13:10:59.837Z,98834.41
2022-12-20T13:13:28.083Z,98833.03
2022-12-20T13:17:09.574Z,98832.34
2022-12-20T13:19:37.628Z,98829.03
2022-12-20T13:22:22.789Z,98824.78
2022-12-20T13:24:56.410Z,98827.66
2022-12-20T13:27:29.267Z,98833.44
2022-12-20T13:30:02.536Z,98821.25
2022-12-20T13:32:59.960Z,98819.88
2022-12-20T13:35:47.686Z,98821.16
2022-12-20T13:39:01.826Z,98811.06
2022-12-20T13:41:39.498Z,98807.94
2022-12-20T13:44:36.001Z,98804.91
2022-12-20T13:47:13.943Z,98809.22
2022-12-20T13:49:44.411Z,98812.09
2022-12-20T13:52:25.447Z,98806.13
